createdAt,value
2022-12-06T00:02:00.785Z,239.30
2022-12-06T00:04:31.035Z,200.35
2022-12-06T00:07:00.312Z,207.90
2022-12-06T00:09:33.201Z,230.30
2022-12-06T00:12:02.495Z,219.25
2022-12-06T00:14:32.558Z,234.13
2022-12-06T00:17:02.029Z,245.63
2022-12-06T00:19:32.373Z,223.25
2022-12-06T00:22:01.591Z,183.93
2022-12-06T00:24:33.067Z,142.55
2022-12-06T00:27:02.701Z,195.27
2022-12-06T00:29:32.842Z,162.48
2022-12-06T00:32:03.641Z,153.00
2022-12-06T00:34:33.716Z,165.73
2022-12-06T00:37:03.129Z,136.85
2022-12-06T00:39:35.104Z,166.90
2022-12-06T00:42:04.497Z,174.77
2022-12-06T00:44:34.503Z,149.37
2022-12-06T00:47:04.138Z,171.70
2022-12-06T00:49:34.110Z,186.27
2022-12-06T00:52:03.552Z,147.70
2022-12-06T00:54:34.729Z,141.02
2022-12-06T00:57:04.202Z,183.30
2022-12-06T00:59:33.797Z,160.48
2022-12-06T01:02:03.337Z,140.80
2022-12-06T01:04:33.433Z,152.90
2022-12-06T01:07:02.779Z,156.55
2022-12-06T01:09:34.349Z,180.27
2022-12-06T01:12:03.736Z,151.75
2022-12-06T01:14:33.721Z,172.80
2022-12-06T01:17:03.654Z,151.43
2022-12-06T01:19:33.556Z,154.20
2022-12-06T01:22:02.915Z,146.60
2022-12-06T01:24:34.409Z,138.02
2022-12-06T01:27:03.719Z,135.38
2022-12-06T01:29:33.350Z,160.88
2022-12-06T01:32:02.911Z,137.60
2022-12-06T01:34:33.011Z,117.88
2022-12-06T01:37:02.529Z,147.63
2022-12-06T01:39:33.743Z,147.48
2022-12-06T01:42:03.117Z,150.90
2022-12-06T01:44:45.477Z,166.95
2022-12-06T01:47:20.227Z,165.57
2022-12-06T01:49:53.927Z,136.35
2022-12-06T01:52:26.454Z,144.43
2022-12-06T01:55:00.301Z,169.55
2022-12-06T01:57:30.885Z,151.25
2022-12-06T02:00:01.645Z,128.10
2022-12-06T02:02:31.864Z,205.68
2022-12-06T02:05:03.262Z,134.50
2022-12-06T02:10:05.668Z,151.27
2022-12-06T02:12:35.342Z,208.68
2022-12-06T02:15:05.629Z,182.95
2022-12-06T02:17:45.137Z,157.07
2022-12-06T02:20:28.930Z,199.10
2022-12-06T02:23:30.083Z,183.45
2022-12-06T02:26:30.320Z,140.60
2022-12-06T02:29:30.523Z,128.75
2022-12-06T02:32:05.001Z,136.05
2022-12-06T02:34:43.237Z,118.63
2022-12-06T02:37:19.051Z,122.78
2022-12-06T02:39:54.364Z,122.70
2022-12-06T02:42:27.895Z,141.45
2022-12-06T02:45:00.323Z,163.45
2022-12-06T02:47:36.252Z,149.35
2022-12-06T02:50:10.455Z,141.98
2022-12-06T02:52:44.649Z,137.88
2022-12-06T02:55:16.698Z,186.70
2022-12-06T02:57:48.910Z,175.75
2022-12-06T03:00:34.053Z,125.30
2022-12-06T03:03:17.872Z,139.32
2022-12-06T03:06:01.614Z,134.93
2022-12-06T03:08:43.178Z,112.18
2022-12-06T03:11:13.694Z,145.47
2022-12-06T03:13:54.685Z,130.10
2022-12-06T03:16:29.652Z,165.45
2022-12-06T03:19:06.767Z,167.18
2022-12-06T03:21:42.437Z,206.93
2022-12-06T03:24:16.192Z,177.60
2022-12-06T03:26:48.667Z,120.95
2022-12-06T03:29:22.650Z,146.73
2022-12-06T03:31:53.704Z,116.35
2022-12-06T03:34:29.516Z,137.98
2022-12-06T03:37:00.696Z,150.30
2022-12-06T03:39:37.632Z,151.43
2022-12-06T03:42:07.601Z,141.43
2022-12-06T03:44:38.011Z,130.70
2022-12-06T03:47:12.800Z,160.95
2022-12-06T03:49:48.768Z,132.52
2022-12-06T03:52:18.220Z,123.50
2022-12-06T03:54:48.038Z,127.40
2022-12-06T03:57:17.478Z,120.07
2022-12-06T03:59:47.597Z,124.00
2022-12-06T04:02:16.927Z,145.18
2022-12-06T04:04:49.574Z,121.37
2022-12-06T04:07:21.468Z,110.78
2022-12-06T04:09:56.460Z,120.78
2022-12-06T04:12:43.442Z,128.88
2022-12-06T04:15:13.349Z,120.22
2022-12-06T04:18:00.386Z,120.75
2022-12-06T04:20:53.392Z,114.38
2022-12-06T04:23:22.363Z,109.20
2022-12-06T04:25:52.343Z,127.80
2022-12-06T04:28:39.067Z,103.47
2022-12-06T04:31:26.421Z,108.93
2022-12-06T04:34:13.144Z,111.38
2022-12-06T04:37:03.341Z,105.70
2022-12-06T04:39:33.173Z,95.20
2022-12-06T04:42:21.035Z,113.30
2022-12-06T04:44:50.435Z,106.68
2022-12-06T04:47:20.384Z,110.00
2022-12-06T04:49:49.847Z,92.40
2022-12-06T04:52:21.230Z,86.90
2022-12-06T04:57:20.891Z,90.03
2022-12-06T04:59:51.444Z,93.47
2022-12-06T05:02:21.737Z,84.20
2022-12-06T05:04:51.258Z,84.90
2022-12-06T05:07:22.829Z,73.00
2022-12-06T05:09:52.080Z,76.40
2022-12-06T05:12:22.088Z,74.20
2022-12-06T05:14:51.369Z,74.65
2022-12-06T05:17:21.044Z,81.32
2022-12-06T05:19:50.584Z,75.50
2022-12-06T05:22:21.719Z,71.45
2022-12-06T05:24:52.025Z,68.82
2022-12-06T05:27:21.831Z,65.57
2022-12-06T05:29:51.209Z,76.18
2022-12-06T05:32:21.175Z,77.10
2022-12-06T05:34:50.508Z,72.10
2022-12-06T05:37:22.065Z,72.15
2022-12-06T05:39:51.331Z,66.00
2022-12-06T05:42:22.536Z,73.60
2022-12-06T05:47:21.459Z,63.20
2022-12-06T05:49:51.447Z,73.55
2022-12-06T05:52:22.604Z,69.70
2022-12-06T05:54:51.863Z,67.53
2022-12-06T05:57:21.876Z,74.53
2022-12-06T05:59:51.355Z,73.85
2022-12-06T06:02:21.454Z,84.17
2022-12-06T06:04:51.148Z,75.05
2022-12-06T06:07:22.583Z,84.50
2022-12-06T06:09:52.179Z,81.07
2022-12-06T06:12:21.834Z,82.68
2022-12-06T06:14:51.144Z,81.75
2022-12-06T06:17:21.264Z,75.03
2022-12-06T06:19:51.603Z,86.03
2022-12-06T06:22:23.499Z,76.65
2022-12-06T06:24:53.103Z,77.28
2022-12-06T06:27:23.447Z,73.97
2022-12-06T06:29:52.667Z,73.03
2022-12-06T06:32:23.123Z,74.72
2022-12-06T06:34:52.583Z,60.45
2022-12-06T06:37:24.667Z,67.97
2022-12-06T06:39:53.987Z,68.60
2022-12-06T06:42:24.149Z,63.55
2022-12-06T06:44:54.887Z,66.57
2022-12-06T06:49:53.807Z,65.10
2022-12-06T06:52:25.340Z,60.70
2022-12-06T06:54:54.644Z,60.30
2022-12-06T06:57:24.936Z,55.10
2022-12-06T06:59:54.375Z,58.08
2022-12-06T07:02:24.590Z,60.67
2022-12-06T07:04:54.067Z,56.20
2022-12-06T07:07:25.567Z,52.37
2022-12-06T07:09:54.845Z,51.83
2022-12-06T07:12:24.768Z,54.08
2022-12-06T07:14:54.099Z,52.45
2022-12-06T07:17:24.835Z,50.08
2022-12-06T07:19:54.089Z,53.15
2022-12-06T07:22:25.587Z,55.25
2022-12-06T07:24:54.832Z,64.90
2022-12-06T07:27:25.155Z,50.20
2022-12-06T07:29:54.407Z,55.45
2022-12-06T07:32:24.608Z,53.33
2022-12-06T07:34:54.085Z,52.83
2022-12-06T07:37:25.273Z,57.03
2022-12-06T07:39:54.709Z,52.13
2022-12-06T07:42:41.700Z,53.50
2022-12-06T07:45:13.411Z,55.80
2022-12-06T07:47:44.689Z,66.55
2022-12-06T07:50:18.367Z,55.97
2022-12-06T07:52:51.349Z,53.58
2022-12-06T07:55:21.218Z,61.28
2022-12-06T07:57:50.862Z,59.00
2022-12-06T08:00:20.942Z,48.35
2022-12-06T08:02:51.119Z,48.90
2022-12-06T08:05:20.571Z,53.17
2022-12-06T08:07:52.170Z,48.63
2022-12-06T08:10:21.507Z,53.55
2022-12-06T08:12:51.215Z,56.75
2022-12-06T08:15:20.471Z,46.47
2022-12-06T08:17:50.139Z,51.50
2022-12-06T08:20:19.740Z,50.80
2022-12-06T08:22:50.922Z,52.42
2022-12-06T08:25:20.345Z,46.47
2022-12-06T08:27:49.998Z,45.33
2022-12-06T08:30:19.547Z,43.47
2022-12-06T08:32:49.586Z,41.35
2022-12-06T08:35:19.141Z,41.47
2022-12-06T08:37:50.866Z,45.28
2022-12-06T08:42:50.135Z,38.50
2022-12-06T08:45:19.907Z,39.10
2022-12-06T08:47:49.860Z,39.17
2022-12-06T08:50:19.342Z,41.42
2022-12-06T08:52:49.015Z,39.80
2022-12-06T08:55:20.446Z,37.95
2022-12-06T08:57:50.669Z,42.63
2022-12-06T09:00:20.723Z,44.78
2022-12-06T09:02:50.727Z,48.10
2022-12-06T09:05:20.164Z,44.58
2022-12-06T09:07:50.443Z,46.03
2022-12-06T09:10:21.530Z,46.08
2022-12-06T09:12:51.668Z,52.95
2022-12-06T09:15:20.988Z,55.35
2022-12-06T09:17:50.868Z,53.45
2022-12-06T09:20:20.288Z,50.85
2022-12-06T09:22:50.471Z,49.17
2022-12-06T09:25:21.378Z,47.47
2022-12-06T09:27:51.459Z,51.83
2022-12-06T09:30:21.056Z,49.25
2022-12-06T09:32:50.910Z,49.75
2022-12-06T09:35:24.872Z,45.45
2022-12-06T09:37:55.783Z,46.85
2022-12-06T09:40:39.943Z,50.00
2022-12-06T09:43:29.361Z,43.80
2022-12-06T09:46:13.052Z,47.65
2022-12-06T09:49:07.152Z,47.30
2022-12-06T09:51:53.949Z,40.83
2022-12-06T09:54:36.438Z,47.78
2022-12-06T09:57:13.198Z,48.47
2022-12-06T09:59:53.730Z,50.00
2022-12-06T10:02:38.639Z,50.95
2022-12-06T10:05:24.562Z,50.33
2022-12-06T10:08:04.375Z,44.53
2022-12-06T10:10:44.137Z,47.93
2022-12-06T10:13:19.452Z,56.13
2022-12-06T10:16:05.126Z,51.60
2022-12-06T10:18:51.773Z,43.80
2022-12-06T10:21:32.756Z,45.20
2022-12-06T10:24:16.323Z,45.53
2022-12-06T10:26:51.577Z,47.70
2022-12-06T10:29:38.077Z,50.75
2022-12-06T10:32:18.537Z,44.03
2022-12-06T10:34:56.863Z,49.08
2022-12-06T10:37:40.828Z,46.28
2022-12-06T10:40:18.354Z,50.63
2022-12-06T10:42:53.330Z,48.40
2022-12-06T10:45:48.318Z,48.28
2022-12-06T10:48:22.379Z,42.33
2022-12-06T10:50:57.572Z,50.45
2022-12-06T10:53:31.959Z,47.38
2022-12-06T10:56:04.387Z,47.05
2022-12-06T10:58:41.072Z,46.75
2022-12-06T11:01:17.707Z,42.75
2022-12-06T11:04:01.075Z,48.13
2022-12-06T11:06:34.550Z,45.15
2022-12-06T11:09:14.455Z,44.55
2022-12-06T11:11:45.904Z,47.55
2022-12-06T11:14:23.893Z,49.28
2022-12-06T11:16:58.600Z,49.45
2022-12-06T11:19:35.308Z,52.78
2022-12-06T11:22:16.522Z,64.18
2022-12-06T11:24:52.684Z,57.45
2022-12-06T11:27:32.342Z,59.40
2022-12-06T11:30:05.517Z,66.43
2022-12-06T11:32:36.496Z,58.47
2022-12-06T11:35:07.965Z,57.72
2022-12-06T11:37:44.227Z,53.80
2022-12-06T11:40:23.865Z,62.00
2022-12-06T11:42:53.819Z,55.78
2022-12-06T11:45:27.987Z,53.45
2022-12-06T11:48:02.092Z,51.42
2022-12-06T11:50:34.663Z,54.33
2022-12-06T11:53:09.003Z,47.35
2022-12-06T11:55:45.348Z,52.38
2022-12-06T11:58:20.291Z,49.88
2022-12-06T12:01:02.037Z,55.05
2022-12-06T12:06:25.080Z,47.67
2022-12-06T12:08:58.715Z,51.97
2022-12-06T12:11:30.927Z,49.25
2022-12-06T12:14:03.252Z,59.45
2022-12-06T12:16:37.870Z,60.33
2022-12-06T12:19:30.091Z,56.13
2022-12-06T12:22:01.875Z,51.60
2022-12-06T12:27:49.078Z,53.47
2022-12-06T12:30:34.880Z,48.55
2022-12-06T12:33:23.220Z,48.28
2022-12-06T12:35:57.801Z,54.08
2022-12-06T12:38:38.979Z,54.15
2022-12-06T12:41:36.857Z,53.92
2022-12-06T12:44:36.400Z,50.08
2022-12-06T12:47:06.480Z,48.17
2022-12-06T12:49:39.258Z,43.55
2022-12-06T12:52:30.100Z,52.83
2022-12-06T12:55:03.246Z,47.97
2022-12-06T12:57:32.830Z,47.33
2022-12-06T13:00:02.469Z,44.30
2022-12-06T13:02:34.746Z,41.03
2022-12-06T13:05:32.057Z,41.33
2022-12-06T13:08:09.391Z,40.10
2022-12-06T13:10:41.596Z,42.95
2022-12-06T13:13:18.198Z,48.65
2022-12-06T13:15:49.842Z,45.05
2022-12-06T13:18:22.895Z,45.50
2022-12-06T13:20:55.730Z,47.63
2022-12-06T13:23:30.239Z,45.58
2022-12-06T13:26:08.100Z,41.63
2022-12-06T13:28:44.185Z,50.08
2022-12-06T13:31:18.583Z,39.88
2022-12-06T13:33:53.182Z,41.75
2022-12-06T13:36:25.455Z,43.97
2022-12-06T13:38:56.916Z,41.67
2022-12-06T13:42:14.717Z,41.67
2022-12-06T13:44:52.525Z,40.80
2022-12-06T13:47:40.743Z,42.13
2022-12-06T13:50:47.146Z,42.08
2022-12-06T13:53:17.189Z,41.78
2022-12-06T13:56:01.849Z,41.63
2022-12-06T13:58:59.687Z,46.17
2022-12-06T14:01:42.525Z,46.05
2022-12-06T14:09:44.299Z,48.22
2022-12-06T14:12:22.755Z,49.22
2022-12-06T14:15:00.567Z,56.72
2022-12-06T14:18:01.685Z,65.22
2022-12-06T14:20:30.393Z,56.40
2022-12-06T14:23:00.052Z,55.05
2022-12-06T14:25:31.733Z,54.55
2022-12-06T14:30:44.712Z,46.97
2022-12-06T14:33:20.997Z,49.25
2022-12-06T14:35:53.823Z,51.75
2022-12-06T14:38:25.984Z,52.28
2022-12-06T14:41:13.936Z,53.45
2022-12-06T14:43:48.895Z,55.55
2022-12-06T14:46:22.500Z,46.53
2022-12-06T14:49:20.904Z,55.15
2022-12-06T14:51:54.007Z,53.70
2022-12-06T14:54:35.036Z,54.45
2022-12-06T14:57:05.803Z,59.22
2022-12-06T15:00:13.435Z,64.53
2022-12-06T15:02:28.898Z,55.20
2022-12-06T15:04:59.232Z,64.57
2022-12-06T15:07:41.526Z,65.28
2022-12-06T15:10:20.767Z,56.00
2022-12-06T15:12:58.312Z,51.55
2022-12-06T15:15:45.345Z,55.38
2022-12-06T15:18:24.092Z,51.70
2022-12-06T15:20:53.894Z,49.88
2022-12-06T15:23:38.560Z,47.30
2022-12-06T15:26:09.720Z,52.60
2022-12-06T15:28:39.935Z,54.55
2022-12-06T15:31:19.375Z,48.47
2022-12-06T15:33:50.482Z,48.35
2022-12-06T15:36:22.147Z,65.70
2022-12-06T15:38:51.956Z,59.92
2022-12-06T15:41:25.350Z,60.20
2022-12-06T15:43:57.795Z,59.85
2022-12-06T15:46:30.327Z,51.10
2022-12-06T15:49:00.222Z,57.13
2022-12-06T15:51:30.876Z,51.03
2022-12-06T15:56:31.313Z,55.22
2022-12-06T16:01:41.913Z,47.90
2022-12-06T16:04:18.832Z,53.78
2022-12-06T16:06:48.691Z,48.30
2022-12-06T16:09:20.772Z,46.85
2022-12-06T16:11:50.183Z,55.05
2022-12-06T16:14:19.883Z,57.53
2022-12-06T16:16:50.725Z,50.45
2022-12-06T16:19:20.436Z,53.75
2022-12-06T16:21:54.729Z,49.83
2022-12-06T16:24:24.016Z,50.55
2022-12-06T16:26:53.304Z,54.30
2022-12-06T16:29:25.306Z,53.75
2022-12-06T16:31:56.545Z,55.17
2022-12-06T16:34:27.831Z,52.65
2022-12-06T16:37:00.058Z,55.85
2022-12-06T16:39:30.873Z,54.05
2022-12-06T16:42:00.359Z,52.45
2022-12-06T16:44:30.041Z,58.60
2022-12-06T16:47:00.968Z,53.22
2022-12-06T16:49:49.098Z,51.42
2022-12-06T16:52:19.405Z,51.25
2022-12-06T16:54:49.428Z,38.97
2022-12-06T16:57:19.791Z,50.45
2022-12-06T16:59:49.462Z,45.58
2022-12-06T17:02:28.096Z,42.00
2022-12-06T17:05:01.409Z,40.78
2022-12-06T17:07:31.146Z,45.90
2022-12-06T17:10:01.596Z,50.35
2022-12-06T17:12:30.917Z,49.65
2022-12-06T17:15:02.520Z,53.53
2022-12-06T17:17:33.582Z,54.63
2022-12-06T17:22:32.851Z,51.97
2022-12-06T17:25:02.682Z,52.38
2022-12-06T17:27:33.243Z,55.20
2022-12-06T17:30:03.131Z,71.97
2022-12-06T17:32:33.914Z,60.50
2022-12-06T17:35:04.024Z,54.33
2022-12-06T17:37:33.546Z,54.80
2022-12-06T17:40:04.709Z,61.28
2022-12-06T17:42:51.076Z,60.30
2022-12-06T17:45:24.788Z,64.82
2022-12-06T17:47:55.770Z,65.00
2022-12-06T17:50:25.479Z,65.32
2022-12-06T17:52:54.747Z,67.60
2022-12-06T17:55:24.369Z,70.95
2022-12-06T17:57:53.687Z,61.83
2022-12-06T18:00:24.128Z,51.75
2022-12-06T18:02:55.166Z,61.80
2022-12-06T18:05:24.896Z,45.92
2022-12-06T18:07:54.361Z,46.63
2022-12-06T18:10:24.868Z,48.13
2022-12-06T18:12:55.327Z,47.10
2022-12-06T18:15:44.128Z,46.70
2022-12-06T18:18:14.959Z,40.67
2022-12-06T18:20:45.144Z,42.72
2022-12-06T18:23:14.695Z,38.95
2022-12-06T18:25:44.983Z,37.58
2022-12-06T18:28:14.247Z,46.28
2022-12-06T18:30:44.235Z,39.45
2022-12-06T18:33:19.186Z,40.83
2022-12-06T18:35:53.044Z,41.78
2022-12-06T18:38:22.505Z,44.72
2022-12-06T18:40:52.684Z,44.33
2022-12-06T18:43:22.241Z,47.03
2022-12-06T18:45:59.654Z,43.03
2022-12-06T18:48:30.771Z,49.25
2022-12-06T18:51:00.956Z,49.35
2022-12-06T18:53:31.577Z,49.42
2022-12-06T18:56:01.214Z,44.38
2022-12-06T18:58:30.759Z,52.50
2022-12-06T19:01:00.660Z,55.35
2022-12-06T19:03:31.732Z,50.65
2022-12-06T19:06:08.923Z,51.00
2022-12-06T19:08:39.567Z,42.38
2022-12-06T19:13:53.447Z,43.90
2022-12-06T19:16:26.870Z,50.63
2022-12-06T19:18:59.768Z,44.28
2022-12-06T19:21:32.460Z,43.30
2022-12-06T19:24:02.127Z,43.22
2022-12-06T19:26:32.664Z,42.83
2022-12-06T19:29:02.074Z,45.45
2022-12-06T19:31:31.940Z,38.83
2022-12-06T19:34:02.680Z,39.60
2022-12-06T19:36:33.605Z,40.45
2022-12-06T19:39:06.289Z,44.80
2022-12-06T19:41:58.012Z,43.25
2022-12-06T19:44:27.040Z,42.72
2022-12-06T19:46:57.650Z,46.72
2022-12-06T19:49:29.654Z,41.90
2022-12-06T19:51:59.366Z,40.95
2022-12-06T19:54:30.384Z,44.85
2022-12-06T19:57:01.473Z,37.28
2022-12-06T19:59:32.799Z,39.72
2022-12-06T20:02:03.143Z,41.63
2022-12-06T20:04:35.903Z,36.38
2022-12-06T20:07:07.416Z,40.72
2022-12-06T20:09:37.097Z,44.20
2022-12-06T20:12:07.848Z,42.55
2022-12-06T20:14:40.415Z,36.72
2022-12-06T20:17:11.860Z,37.38
2022-12-06T20:19:46.395Z,39.45
2022-12-06T20:22:17.476Z,39.15
2022-12-06T20:24:46.784Z,37.50
2022-12-06T20:27:16.590Z,36.33
2022-12-06T20:29:46.031Z,36.42
2022-12-06T20:32:16.033Z,36.33
2022-12-06T20:34:46.776Z,31.25
2022-12-06T20:37:16.752Z,29.13
2022-12-06T20:39:46.257Z,31.27
2022-12-06T20:42:16.133Z,33.03
2022-12-06T20:44:45.791Z,30.83
2022-12-06T20:47:16.212Z,37.30
2022-12-06T20:49:47.469Z,34.25
2022-12-06T20:52:17.479Z,33.30
2022-12-06T20:54:46.817Z,34.88
2022-12-06T20:57:16.994Z,29.58
2022-12-06T20:59:46.348Z,31.00
2022-12-06T21:02:16.010Z,28.23
2022-12-06T21:04:47.235Z,29.38
2022-12-06T21:07:17.413Z,30.63
2022-12-06T21:09:46.658Z,29.45
2022-12-06T21:12:16.324Z,31.92
2022-12-06T21:14:45.760Z,35.03
2022-12-06T21:17:16.305Z,28.95
2022-12-06T21:19:47.331Z,25.70
2022-12-06T21:22:16.951Z,30.17
2022-12-06T21:24:47.043Z,29.70
2022-12-06T21:27:17.008Z,32.58
2022-12-06T21:29:48.561Z,29.20
2022-12-06T21:32:18.666Z,34.47
2022-12-06T21:34:49.535Z,32.58
2022-12-06T21:37:19.279Z,35.83
2022-12-06T21:39:48.841Z,30.00
2022-12-06T21:42:21.329Z,36.45
2022-12-06T21:44:51.276Z,39.80
2022-12-06T21:47:21.246Z,38.35
2022-12-06T21:49:52.192Z,33.47
2022-12-06T21:52:22.012Z,31.65
2022-12-06T21:54:51.375Z,33.47
2022-12-06T21:57:21.362Z,37.05
2022-12-06T21:59:50.649Z,30.73
2022-12-06T22:02:20.576Z,34.47
2022-12-06T22:04:51.366Z,37.40
2022-12-06T22:07:21.531Z,34.60
2022-12-06T22:09:50.905Z,34.15
2022-12-06T22:12:20.874Z,37.63
2022-12-06T22:14:50.375Z,31.58
2022-12-06T22:17:20.442Z,33.17
2022-12-06T22:19:51.357Z,35.70
2022-12-06T22:22:21.087Z,32.97
2022-12-06T22:24:50.338Z,35.53
2022-12-06T22:27:20.343Z,37.95
2022-12-06T22:29:50.016Z,32.72
2022-12-06T22:32:19.879Z,35.85
2022-12-06T22:34:50.640Z,36.22
2022-12-06T22:37:25.380Z,32.10
2022-12-06T22:39:57.619Z,34.70
2022-12-06T22:42:27.726Z,33.45
2022-12-06T22:44:57.196Z,31.00
2022-12-06T22:47:27.430Z,32.03
2022-12-06T22:49:58.560Z,36.13
2022-12-06T22:52:28.864Z,28.17
2022-12-06T22:54:58.440Z,32.65
2022-12-06T22:57:28.420Z,33.00
2022-12-06T22:59:57.942Z,34.90
2022-12-06T23:02:27.739Z,30.65
2022-12-06T23:04:58.996Z,32.58
2022-12-06T23:07:29.002Z,29.27
2022-12-06T23:09:59.334Z,34.53
2022-12-06T23:12:29.856Z,32.22
2022-12-06T23:14:59.551Z,32.83
2022-12-06T23:17:30.897Z,28.20
2022-12-06T23:20:02.911Z,32.03
2022-12-06T23:22:34.222Z,31.33
2022-12-06T23:25:03.531Z,27.25
2022-12-06T23:27:33.163Z,26.63
2022-12-06T23:30:02.806Z,30.45
2022-12-06T23:32:32.725Z,32.28
2022-12-06T23:35:03.561Z,31.25
2022-12-06T23:37:33.634Z,29.17
2022-12-06T23:40:03.345Z,30.10
2022-12-06T23:42:33.079Z,27.23
2022-12-06T23:45:02.335Z,28.92
2022-12-06T23:47:31.947Z,29.10
2022-12-06T23:50:02.826Z,27.98
2022-12-06T23:52:33.083Z,28.60
2022-12-06T23:55:02.333Z,26.77
2022-12-06T23:57:32.492Z,30.70
